01:09 Rennrad Moetz - Pettnau - Zirl - Kematen - Voels - Radweg - Innsbruck ARZ
Ort Moetz Datum 14.06.2017 06:20:39
Kategorie Rennrad
Distanz 39,10 Kilometer Steigung 79,0 Meter Gefälle -138,0 Meter
Gesamt Zeit 01:09:01 Aktiv 01:08:49 Pause 00:00:12
Durchs. Tempo 34,1 km/h Tempo max. 47,3 km/h Tempo min. 20,1 km/h
Kalorien 0 Durchs. HF 126 BPM HF max. 152 BPM
Wetter 17 °C PartClouds Min/Max: 15,8 °C/17,6 °C; Druck: 1017,2 mbar; Rel. Feuchte: 81,0%; Taupunkt: 13,0 °C; Windgeschwindigkeit: 0,8 km/h; Niederschlag: 0,0mm
Ausrüstung Bontrager - RXL Road
Scott - Addict 20
Notiz Moetz - Pettnau - Zirl - Kematen - Voels - Radweg - Innsbruck ARZ ... trocken, warm, leichter Gegenwind - locker ... garmin connect
Splits
Distanz (km) Gesamt Zeit Split Zeit Split Tempo Split Tempo Höhenprofil (m)
1,00 00:02:04 00:02:04 00:02:05 28,9 -10,02
2,00 00:03:59 00:01:54 00:01:55 31,4 0,32
3,00 00:05:46 00:01:47 00:01:47 33,6 -0,57
4,00 00:07:33 00:01:47 00:01:47 33,6 -3,94
5,00 00:09:14 00:01:41 00:01:41 35,6 0,62
6,00 00:10:57 00:01:42 00:01:43 35,1 -0,23
7,00 00:12:39 00:01:42 00:01:43 35,1 -1,06
8,00 00:14:14 00:01:35 00:01:35 37,8 -7,61
9,00 00:15:57 00:01:42 00:01:42 35,1 -2,75
10,00 00:17:43 00:01:46 00:01:46 33,9 0,95
11,00 00:19:28 00:01:44 00:01:45 34,4 0,15
12,00 00:21:08 00:01:40 00:01:41 35,7 -6,35
13,00 00:22:42 00:01:33 00:01:34 38,5 -0,16
14,00 00:24:26 00:01:43 00:01:44 34,7 0,09
15,00 00:26:11 00:01:44 00:01:45 34,3 -5,15
16,00 00:27:49 00:01:38 00:01:38 36,6 3,96
17,00 00:29:29 00:01:40 00:01:40 35,8 -7,96
18,00 00:31:11 00:01:41 00:01:42 35,3 0,00
19,00 00:32:53 00:01:41 00:01:42 35,3 -0,55
20,00 00:34:36 00:01:43 00:01:43 34,9 -0,85
21,00 00:36:21 00:01:44 00:01:44 34,5 -3,45
22,00 00:38:05 00:01:44 00:01:44 34,6 -4,02
23,00 00:40:03 00:01:57 00:01:58 30,5 11,11
24,00 00:41:47 00:01:44 00:01:44 34,6 -1,09
25,00 00:44:08 00:02:20 00:02:21 25,5 17,21
26,00 00:45:45 00:01:36 00:01:37 37,1 -9,59
27,00 00:47:11 00:01:26 00:01:26 41,8 -30,14
28,00 00:48:52 00:01:40 00:01:40 35,8 4,08
29,00 00:50:46 00:01:54 00:01:54 31,4 0,54
30,00 00:52:29 00:01:43 00:01:43 34,9 -2,50
31,00 00:54:08 00:01:39 00:01:39 36,2 -3,28
32,00 00:55:45 00:01:36 00:01:37 37,2 -1,08
33,00 00:57:33 00:01:47 00:01:47 33,6 1,98
34,00 00:59:34 00:02:00 00:02:01 29,8 -7,92
35,00 01:01:17 00:01:43 00:01:43 34,9 -3,74
36,00 01:03:02 00:01:45 00:01:45 34,2 -1,98
37,00 01:04:43 00:01:41 00:01:41 35,5 -2,02
38,00 01:06:32 00:01:48 00:01:49 33,0 0,90
39,00 01:08:31 00:01:59 00:01:59 30,2 6,38
39,13 01:08:49 00:00:17 00:02:16 26,5 0,00